createdAt,value
2022-09-25T00:01:11.336Z,100274.28
2022-09-25T00:03:38.914Z,100270.69
2022-09-25T00:06:22.219Z,100267.66
2022-09-25T00:08:49.518Z,100269.50
2022-09-25T00:11:20.876Z,100268.16
2022-09-25T00:13:47.981Z,100272.16
2022-09-25T00:16:23.539Z,100275.06
2022-09-25T00:19:09.263Z,100272.59
2022-09-25T00:21:37.242Z,100277.41
2022-09-25T00:24:09.609Z,100271.47
2022-09-25T00:26:40.477Z,100270.78
2022-09-25T00:29:10.621Z,100267.84
2022-09-25T00:31:37.443Z,100263.97
2022-09-25T00:34:05.730Z,100261.34
2022-09-25T00:36:33.321Z,100253.63
2022-09-25T00:39:00.626Z,100259.00
2022-09-25T00:41:31.965Z,100257.66
2022-09-25T00:44:01.382Z,100256.91
2022-09-25T00:46:41.867Z,100256.66
2022-09-25T00:49:19.164Z,100253.19
2022-09-25T00:51:55.119Z,100252.53
2022-09-25T00:54:32.643Z,100257.41
2022-09-25T00:57:07.368Z,100255.31
2022-09-25T00:59:40.384Z,100253.97
2022-09-25T01:02:14.118Z,100253.13
2022-09-25T01:04:46.170Z,100256.34
2022-09-25T01:07:14.843Z,100248.47
2022-09-25T01:09:41.776Z,100244.19
2022-09-25T01:12:09.386Z,100248.22
2022-09-25T01:14:37.789Z,100246.00
2022-09-25T01:17:33.070Z,100239.22
2022-09-25T01:20:47.986Z,100244.50
2022-09-25T01:23:43.318Z,100245.16
2022-09-25T01:26:48.677Z,100237.56
2022-09-25T01:29:33.727Z,100242.53
2022-09-25T01:32:27.852Z,100242.16
2022-09-25T01:35:26.675Z,100244.09
2022-09-25T01:38:15.144Z,100229.75
2022-09-25T01:41:02.222Z,100234.41
2022-09-25T01:43:37.949Z,100232.75
2022-09-25T01:46:21.870Z,100237.44
2022-09-25T01:48:55.872Z,100234.25
2022-09-25T01:51:41.801Z,100240.06
2022-09-25T01:54:15.423Z,100238.78
2022-09-25T01:56:56.611Z,100233.22
2022-09-25T01:59:38.112Z,100233.09
2022-09-25T02:02:10.081Z,100233.53
2022-09-25T02:05:00.287Z,100233.16
2022-09-25T02:07:35.435Z,100236.16
2022-09-25T02:10:11.147Z,100232.69
2022-09-25T02:12:46.715Z,100228.94
2022-09-25T02:15:32.655Z,100230.06
2022-09-25T02:18:27.408Z,100235.78
2022-09-25T02:21:04.048Z,100222.84
2022-09-25T02:23:51.373Z,100225.38
2022-09-25T02:26:32.726Z,100230.94
2022-09-25T02:29:00.126Z,100225.00
2022-09-25T02:31:41.013Z,100227.06
2022-09-25T02:34:13.784Z,100229.28
2022-09-25T02:36:43.089Z,100222.69
2022-09-25T02:39:11.523Z,100228.97
2022-09-25T02:42:20.850Z,100226.00
2022-09-25T02:45:07.918Z,100228.81
2022-09-25T02:47:55.893Z,100220.00
2022-09-25T02:50:50.916Z,100232.03
2022-09-25T02:53:43.599Z,100228.16
2022-09-25T02:56:28.177Z,100234.25
2022-09-25T02:59:02.038Z,100233.56
2022-09-25T03:01:32.385Z,100228.16
2022-09-25T03:04:01.072Z,100238.47
2022-09-25T03:06:30.304Z,100225.22
2022-09-25T03:08:59.023Z,100227.97
2022-09-25T03:11:27.077Z,100221.22
2022-09-25T03:14:02.947Z,100217.38
2022-09-25T03:16:51.492Z,100225.09
2022-09-25T03:19:22.121Z,100231.88
2022-09-25T03:21:49.894Z,100223.16
2022-09-25T03:24:17.096Z,100225.53
2022-09-25T03:26:44.495Z,100227.22
2022-09-25T03:29:14.680Z,100225.50
2022-09-25T03:31:42.689Z,100223.50
2022-09-25T03:34:11.597Z,100230.63
2022-09-25T03:36:38.827Z,100221.88
2022-09-25T03:39:06.686Z,100233.00
2022-09-25T03:41:35.113Z,100218.78
2022-09-25T03:44:02.588Z,100217.72
2022-09-25T03:46:32.607Z,100217.41
2022-09-25T03:49:00.244Z,100217.41
2022-09-25T03:51:29.070Z,100225.03
2022-09-25T03:53:56.231Z,100219.47
2022-09-25T03:56:26.770Z,100217.81
2022-09-25T03:58:54.742Z,100219.03
2022-09-25T04:01:22.924Z,100219.88
2022-09-25T04:03:50.892Z,100215.72
2022-09-25T04:06:22.537Z,100219.19
2022-09-25T04:08:50.122Z,100220.09
2022-09-25T04:11:19.290Z,100216.38
2022-09-25T04:13:46.808Z,100214.66
2022-09-25T04:16:16.672Z,100216.91
2022-09-25T04:18:44.102Z,100219.78
2022-09-25T04:21:13.033Z,100214.44
2022-09-25T04:23:40.729Z,100212.47
2022-09-25T04:26:09.006Z,100213.75
2022-09-25T04:28:36.274Z,100215.78
2022-09-25T04:31:04.025Z,100214.00
2022-09-25T04:33:46.455Z,100216.81
2022-09-25T04:36:15.277Z,100221.19
2022-09-25T04:38:42.300Z,100214.00
2022-09-25T04:41:09.269Z,100219.09
2022-09-25T04:43:36.609Z,100212.47
2022-09-25T04:46:14.213Z,100218.69
2022-09-25T04:48:47.059Z,100221.31
2022-09-25T04:51:13.935Z,100225.63
2022-09-25T04:53:40.808Z,100223.84
2022-09-25T04:56:14.584Z,100220.38
2022-09-25T04:58:49.314Z,100222.06
2022-09-25T05:01:19.327Z,100225.78
2022-09-25T05:03:53.959Z,100224.59
2022-09-25T05:06:22.111Z,100227.03
2022-09-25T05:08:49.629Z,100228.13
2022-09-25T05:11:16.517Z,100230.19
2022-09-25T05:13:43.832Z,100227.47
2022-09-25T05:16:10.617Z,100229.50
2022-09-25T05:18:37.984Z,100226.47
2022-09-25T05:21:05.496Z,100223.41
2022-09-25T05:23:32.309Z,100222.97
2022-09-25T05:26:01.945Z,100220.84
2022-09-25T05:28:32.426Z,100221.28
2022-09-25T05:31:04.210Z,100222.16
2022-09-25T05:33:35.471Z,100220.34
2022-09-25T05:36:07.318Z,100228.91
2022-09-25T05:38:36.625Z,100228.31
2022-09-25T05:41:08.760Z,100219.78
2022-09-25T05:43:40.707Z,100214.91
2022-09-25T05:46:07.854Z,100222.78
2022-09-25T05:48:34.995Z,100222.47
2022-09-25T05:51:01.954Z,100225.66
2022-09-25T05:53:30.520Z,100226.00
2022-09-25T05:56:00.607Z,100228.88
2022-09-25T05:58:29.752Z,100228.56
2022-09-25T06:01:04.045Z,100223.84
2022-09-25T06:03:31.615Z,100240.97
2022-09-25T06:06:02.446Z,100234.59
2022-09-25T06:08:35.388Z,100231.84
2022-09-25T06:11:03.214Z,100230.56
2022-09-25T06:13:34.710Z,100230.25
2022-09-25T06:16:02.099Z,100234.53
2022-09-25T06:18:28.962Z,100238.25
2022-09-25T06:21:02.581Z,100231.25
2022-09-25T06:23:29.801Z,100236.50
2022-09-25T06:26:05.275Z,100230.13
2022-09-25T06:28:32.971Z,100237.78
2022-09-25T06:31:01.767Z,100239.88
2022-09-25T06:33:28.657Z,100241.44
2022-09-25T06:35:55.478Z,100239.31
2022-09-25T06:38:22.658Z,100232.88
2022-09-25T06:40:49.532Z,100231.16
2022-09-25T06:43:16.910Z,100242.81
2022-09-25T06:45:44.202Z,100244.47
2022-09-25T06:48:16.212Z,100242.81
2022-09-25T06:50:52.504Z,100247.47
2022-09-25T06:53:23.073Z,100243.25
2022-09-25T06:55:50.718Z,100250.41
2022-09-25T06:58:23.235Z,100241.91
2022-09-25T07:00:52.245Z,100240.94
2022-09-25T07:03:37.935Z,100249.59
2022-09-25T07:06:08.281Z,100247.94
2022-09-25T07:08:35.289Z,100258.59
2022-09-25T07:11:02.756Z,100249.81
2022-09-25T07:13:33.465Z,100251.41
2022-09-25T07:16:03.971Z,100248.53
2022-09-25T07:18:31.246Z,100249.44
2022-09-25T07:21:08.693Z,100245.13
2022-09-25T07:23:36.417Z,100251.78
2022-09-25T07:26:09.117Z,100251.75
2022-09-25T07:28:38.270Z,100251.81
2022-09-25T07:31:19.261Z,100253.34
2022-09-25T07:33:48.002Z,100256.00
2022-09-25T07:36:17.058Z,100265.00
2022-09-25T07:38:46.001Z,100251.19
2022-09-25T07:41:13.840Z,100256.88
2022-09-25T07:43:43.642Z,100249.13
2022-09-25T07:46:11.306Z,100257.00
2022-09-25T07:48:38.171Z,100256.00
2022-09-25T07:51:08.224Z,100256.38
2022-09-25T07:53:35.032Z,100261.88
2022-09-25T07:56:06.458Z,100265.19
2022-09-25T07:58:35.793Z,100260.59
2022-09-25T08:01:06.018Z,100258.75
2022-09-25T08:03:33.513Z,100257.38
2022-09-25T08:06:02.850Z,100264.13
2022-09-25T08:08:30.790Z,100257.44
2022-09-25T08:11:02.846Z,100265.69
2022-09-25T08:13:32.593Z,100259.25
2022-09-25T08:16:03.318Z,100267.44
2022-09-25T08:18:30.191Z,100267.44
2022-09-25T08:21:04.066Z,100268.22
2022-09-25T08:23:31.965Z,100270.34
2022-09-25T08:25:59.748Z,100267.72
2022-09-25T08:28:27.209Z,100266.50
2022-09-25T08:30:54.209Z,100264.25
2022-09-25T08:33:21.134Z,100265.84
2022-09-25T08:36:05.656Z,100264.94
2022-09-25T08:38:33.256Z,100258.38
2022-09-25T08:41:15.669Z,100262.78
2022-09-25T08:44:10.706Z,100260.97
2022-09-25T08:47:05.198Z,100257.66
2022-09-25T08:49:38.277Z,100246.19
2022-09-25T08:52:11.379Z,100262.81
2022-09-25T08:54:42.159Z,100253.63
2022-09-25T08:57:40.304Z,100252.38
2022-09-25T09:00:18.468Z,100247.50
2022-09-25T09:02:57.754Z,100248.47
2022-09-25T09:05:34.874Z,100258.97
2022-09-25T09:08:11.282Z,100254.63
2022-09-25T09:10:49.199Z,100261.06
2022-09-25T09:13:41.425Z,100255.59
2022-09-25T09:16:33.816Z,100260.75
2022-09-25T09:19:04.768Z,100268.78
2022-09-25T09:21:43.829Z,100254.06
2022-09-25T09:24:44.664Z,100264.56
2022-09-25T09:27:50.203Z,100271.28
2022-09-25T09:30:41.681Z,100268.22
2022-09-25T09:33:43.832Z,100268.84
2022-09-25T09:36:20.040Z,100269.47
2022-09-25T09:39:28.606Z,100266.47
2022-09-25T09:42:22.315Z,100263.25
2022-09-25T09:45:14.760Z,100266.44
2022-09-25T09:48:14.626Z,100256.91
2022-09-25T09:51:16.071Z,100257.66
2022-09-25T09:53:51.139Z,100261.66
2022-09-25T09:56:25.486Z,100256.22
2022-09-25T09:59:14.752Z,100256.41
2022-09-25T10:01:45.181Z,100257.47
2022-09-25T10:04:18.198Z,100256.84
2022-09-25T10:06:58.478Z,100263.03
2022-09-25T10:09:26.441Z,100254.91
2022-09-25T10:12:08.017Z,100258.72
2022-09-25T10:14:42.572Z,100254.78
2022-09-25T10:17:13.341Z,100249.16
2022-09-25T10:19:57.507Z,100251.28
2022-09-25T10:22:36.085Z,100244.28
2022-09-25T10:25:03.464Z,100241.88
2022-09-25T10:27:38.251Z,100235.06
2022-09-25T10:30:10.870Z,100243.75
2022-09-25T10:33:06.355Z,100248.72
2022-09-25T10:35:39.134Z,100252.78
2022-09-25T10:38:20.150Z,100243.63
2022-09-25T10:41:07.673Z,100250.72
2022-09-25T10:43:35.106Z,100252.88
2022-09-25T10:46:15.903Z,100247.81
2022-09-25T10:49:01.852Z,100254.88
2022-09-25T10:51:32.321Z,100247.97
2022-09-25T10:54:15.412Z,100246.53
2022-09-25T10:56:42.735Z,100249.44
2022-09-25T10:59:21.046Z,100254.47
2022-09-25T11:01:50.869Z,100254.97
2022-09-25T11:04:28.004Z,100251.28
2022-09-25T11:07:02.620Z,100254.47
2022-09-25T11:09:32.485Z,100246.59
2022-09-25T11:12:14.201Z,100253.06
2022-09-25T11:14:55.256Z,100247.91
2022-09-25T11:17:42.037Z,100245.97
2022-09-25T11:20:29.640Z,100250.53
2022-09-25T11:23:08.575Z,100250.34
2022-09-25T11:25:52.991Z,100252.09
2022-09-25T11:28:41.320Z,100247.56
2022-09-25T11:31:41.499Z,100246.31
2022-09-25T11:34:08.379Z,100245.22
2022-09-25T11:37:01.175Z,100240.97
2022-09-25T11:40:03.920Z,100237.31
2022-09-25T11:42:52.170Z,100242.78
2022-09-25T11:45:41.094Z,100242.63
2022-09-25T11:48:37.355Z,100250.75
2022-09-25T11:51:47.495Z,100246.94
2022-09-25T11:55:03.588Z,100241.00
2022-09-25T11:57:39.013Z,100240.69
2022-09-25T12:00:21.269Z,100242.69
2022-09-25T12:03:31.181Z,100239.97
2022-09-25T12:06:14.335Z,100237.19
2022-09-25T12:09:33.556Z,100231.47
2022-09-25T12:12:35.200Z,100237.13
2022-09-25T12:15:14.282Z,100227.59
2022-09-25T12:18:15.586Z,100230.44
2022-09-25T12:21:33.986Z,100224.84
2022-09-25T12:24:18.776Z,100227.19
2022-09-25T12:27:14.872Z,100232.28
2022-09-25T12:30:12.965Z,100232.13
2022-09-25T12:33:15.672Z,100231.44
2022-09-25T12:36:04.184Z,100229.16
2022-09-25T12:38:55.367Z,100235.78
2022-09-25T12:41:36.721Z,100228.53
2022-09-25T12:44:17.966Z,100231.81
2022-09-25T12:46:50.791Z,100235.44
2022-09-25T12:49:41.693Z,100224.91
2022-09-25T12:52:16.913Z,100229.34
2022-09-25T12:55:19.077Z,100231.00
2022-09-25T12:57:55.784Z,100226.91
2022-09-25T13:00:25.634Z,100232.66
2022-09-25T13:03:32.863Z,100229.22
2022-09-25T13:06:59.674Z,100224.25
2022-09-25T13:09:44.880Z,100226.19
2022-09-25T13:12:34.293Z,100225.19
2022-09-25T13:15:23.461Z,100231.16
2022-09-25T13:17:50.990Z,100231.63
2022-09-25T13:20:26.625Z,100226.69
2022-09-25T13:23:09.562Z,100230.19
2022-09-25T13:26:00.356Z,100227.91
2022-09-25T13:28:36.155Z,100225.75
2022-09-25T13:31:12.967Z,100236.25
2022-09-25T13:33:55.216Z,100235.22
2022-09-25T13:36:24.266Z,100237.72
2022-09-25T13:39:25.541Z,100239.66
2022-09-25T13:42:31.920Z,100244.94
2022-09-25T13:45:29.791Z,100242.25
2022-09-25T13:48:30.863Z,100252.25
2022-09-25T13:51:33.239Z,100251.75
2022-09-25T13:54:04.883Z,100248.88
2022-09-25T13:56:40.104Z,100250.25
2022-09-25T13:59:10.238Z,100254.00
2022-09-25T14:01:59.980Z,100253.41
2022-09-25T14:04:39.249Z,100253.94
2022-09-25T14:07:28.750Z,100251.69
2022-09-25T14:09:57.915Z,100256.16
2022-09-25T14:12:42.419Z,100250.53
2022-09-25T14:15:28.287Z,100255.16
2022-09-25T14:17:57.469Z,100256.63
2022-09-25T14:20:35.048Z,100246.56
2022-09-25T14:23:13.882Z,100246.09
2022-09-25T14:25:44.552Z,100255.03
2022-09-25T14:28:30.080Z,100251.56
2022-09-25T14:31:19.152Z,100246.19
2022-09-25T14:34:45.153Z,100249.50
2022-09-25T14:37:30.150Z,100244.91
2022-09-25T14:40:35.636Z,100248.44
2022-09-25T14:43:41.375Z,100239.09
2022-09-25T14:46:20.531Z,100238.19
2022-09-25T14:49:11.661Z,100243.97
2022-09-25T14:51:43.466Z,100239.16
2022-09-25T14:54:16.077Z,100238.00
2022-09-25T14:56:50.190Z,100244.91
2022-09-25T14:59:40.125Z,100244.91
2022-09-25T15:02:23.707Z,100244.53
2022-09-25T15:04:51.129Z,100236.72
2022-09-25T15:07:27.818Z,100233.56
2022-09-25T15:09:59.146Z,100227.75
2022-09-25T15:12:36.524Z,100233.94
2022-09-25T15:15:16.405Z,100235.13
2022-09-25T15:17:54.687Z,100228.94
2022-09-25T15:20:25.407Z,100234.09
2022-09-25T15:23:03.482Z,100241.69
2022-09-25T15:25:37.216Z,100243.41
2022-09-25T15:28:08.988Z,100250.31
2022-09-25T15:30:39.785Z,100240.97
2022-09-25T15:33:06.664Z,100247.03
2022-09-25T15:35:33.526Z,100246.72
2022-09-25T15:38:12.143Z,100241.94
2022-09-25T15:40:42.898Z,100249.84
2022-09-25T15:43:15.999Z,100253.72
2022-09-25T15:46:08.265Z,100243.19
2022-09-25T15:48:40.588Z,100240.91
2022-09-25T15:51:21.241Z,100235.97
2022-09-25T15:54:31.545Z,100229.38
2022-09-25T15:57:01.492Z,100237.91
2022-09-25T15:59:59.392Z,100242.47
2022-09-25T16:02:51.876Z,100243.63
2022-09-25T16:05:29.839Z,100247.16
2022-09-25T16:08:31.985Z,100235.31
2022-09-25T16:11:26.501Z,100234.53
2022-09-25T16:14:17.513Z,100239.56
2022-09-25T16:16:50.301Z,100242.75
2022-09-25T16:19:26.345Z,100245.38
2022-09-25T16:21:54.339Z,100241.94
2022-09-25T16:24:28.195Z,100236.19
2022-09-25T16:27:03.574Z,100234.97
2022-09-25T16:29:34.302Z,100235.38
2022-09-25T16:32:08.706Z,100237.34
2022-09-25T16:34:40.750Z,100233.53
2022-09-25T16:37:21.203Z,100237.13
2022-09-25T16:40:24.585Z,100249.47
2022-09-25T16:42:55.841Z,100243.88
2022-09-25T16:45:29.470Z,100246.91
2022-09-25T16:48:00.077Z,100246.69
2022-09-25T16:50:33.533Z,100251.44
2022-09-25T16:53:03.390Z,100248.09
2022-09-25T16:55:30.701Z,100252.78
2022-09-25T16:57:59.167Z,100252.28
2022-09-25T17:00:29.692Z,100259.63
2022-09-25T17:02:57.016Z,100251.50
2022-09-25T17:05:26.716Z,100253.06
2022-09-25T17:08:17.304Z,100249.47
2022-09-25T17:10:46.139Z,100255.69
2022-09-25T17:13:16.166Z,100252.47
2022-09-25T17:15:43.183Z,100254.19
2022-09-25T17:18:19.764Z,100254.50
2022-09-25T17:20:50.474Z,100256.22
2022-09-25T17:23:21.474Z,100258.16
2022-09-25T17:26:00.822Z,100258.16
2022-09-25T17:28:29.395Z,100267.28
2022-09-25T17:30:56.842Z,100264.94
2022-09-25T17:33:23.902Z,100257.94
2022-09-25T17:36:04.963Z,100266.34
2022-09-25T17:38:33.813Z,100256.75
2022-09-25T17:41:05.922Z,100266.59
2022-09-25T17:43:33.655Z,100257.16
2022-09-25T17:46:01.303Z,100262.47
2022-09-25T17:48:31.819Z,100270.19
2022-09-25T17:51:21.122Z,100271.63
2022-09-25T17:53:52.841Z,100274.66
2022-09-25T17:56:20.124Z,100279.09
2022-09-25T17:58:47.176Z,100280.28
2022-09-25T18:01:23.763Z,100277.97
2022-09-25T18:03:58.820Z,100280.72
2022-09-25T18:06:27.978Z,100282.22
2022-09-25T18:08:55.989Z,100279.00
2022-09-25T18:11:25.406Z,100288.31
2022-09-25T18:13:55.396Z,100285.19
2022-09-25T18:16:32.043Z,100285.47
2022-09-25T18:19:18.377Z,100277.41
2022-09-25T18:22:03.649Z,100275.06
2022-09-25T18:24:30.593Z,100275.00
2022-09-25T18:26:58.023Z,100276.84
2022-09-25T18:29:25.596Z,100275.81
2022-09-25T18:31:52.814Z,100272.72
2022-09-25T18:34:21.643Z,100275.22
2022-09-25T18:36:49.799Z,100276.41
2022-09-25T18:39:20.155Z,100279.34
2022-09-25T18:41:48.451Z,100282.38
2022-09-25T18:44:17.575Z,100277.69
2022-09-25T18:46:44.689Z,100274.38
2022-09-25T18:49:11.849Z,100281.31
2022-09-25T18:51:38.710Z,100272.59
2022-09-25T18:54:05.569Z,100279.13
2022-09-25T18:56:34.471Z,100273.03
2022-09-25T18:59:05.512Z,100280.47
2022-09-25T19:01:36.101Z,100284.06
2022-09-25T19:04:03.835Z,100288.72
2022-09-25T19:06:30.726Z,100283.47
2022-09-25T19:08:58.119Z,100281.44
2022-09-25T19:11:26.864Z,100279.84
2022-09-25T19:13:54.413Z,100286.91
2022-09-25T19:16:22.172Z,100286.22
2022-09-25T19:18:50.218Z,100283.56
2022-09-25T19:21:22.472Z,100281.88
2022-09-25T19:23:50.242Z,100284.94
2022-09-25T19:26:23.146Z,100284.28
2022-09-25T19:28:49.959Z,100287.72
2022-09-25T19:31:26.612Z,100283.34
2022-09-25T19:33:55.553Z,100283.84
2022-09-25T19:36:33.004Z,100283.16
2022-09-25T19:39:01.192Z,100292.84
2022-09-25T19:41:33.968Z,100283.59
2022-09-25T19:44:12.847Z,100297.34
2022-09-25T19:46:42.118Z,100297.41
2022-09-25T19:49:10.206Z,100300.50
2022-09-25T19:51:37.652Z,100290.69
2022-09-25T19:54:07.395Z,100286.66
2022-09-25T19:56:40.753Z,100282.69
2022-09-25T19:59:16.077Z,100287.25
2022-09-25T20:01:43.630Z,100293.50
2022-09-25T20:04:17.194Z,100292.03
2022-09-25T20:06:45.943Z,100292.50
2022-09-25T20:09:12.914Z,100293.72
2022-09-25T20:11:39.802Z,100292.69
2022-09-25T20:14:07.812Z,100289.63
2022-09-25T20:16:37.526Z,100286.31
2022-09-25T20:19:06.734Z,100281.88
2022-09-25T20:21:37.449Z,100286.88
2022-09-25T20:24:07.474Z,100288.25
2022-09-25T20:26:36.276Z,100294.06
2022-09-25T20:29:08.850Z,100296.03
2022-09-25T20:31:38.207Z,100290.22
2022-09-25T20:34:05.853Z,100286.88
2022-09-25T20:36:32.789Z,100287.09
2022-09-25T20:39:00.904Z,100290.09
2022-09-25T20:41:27.878Z,100288.53
2022-09-25T20:43:57.188Z,100295.72
2022-09-25T20:46:26.286Z,100295.13
2022-09-25T20:48:57.381Z,100288.63
2022-09-25T20:51:31.360Z,100283.94
2022-09-25T20:54:07.656Z,100281.31
2022-09-25T20:56:36.536Z,100282.69
2022-09-25T20:59:05.603Z,100277.59
2022-09-25T21:01:37.611Z,100275.00
2022-09-25T21:04:08.030Z,100277.03
2022-09-25T21:06:38.756Z,100280.66
2022-09-25T21:09:12.818Z,100281.50
2022-09-25T21:11:40.338Z,100276.69
2022-09-25T21:14:07.435Z,100286.63
2022-09-25T21:16:34.405Z,100278.59
2022-09-25T21:19:04.678Z,100277.91
2022-09-25T21:21:33.417Z,100268.53
2022-09-25T21:24:02.309Z,100265.75
2022-09-25T21:26:31.453Z,100268.53
2022-09-25T21:29:01.709Z,100260.38
2022-09-25T21:31:35.172Z,100252.25
2022-09-25T21:34:03.275Z,100260.81
2022-09-25T21:36:30.948Z,100255.28
2022-09-25T21:39:00.163Z,100259.69
2022-09-25T21:41:29.960Z,100251.97
2022-09-25T21:44:06.262Z,100254.88
2022-09-25T21:46:34.829Z,100252.81
2022-09-25T21:49:05.682Z,100260.31
2022-09-25T21:51:38.830Z,100251.34
2022-09-25T21:54:08.322Z,100244.16
2022-09-25T21:56:35.887Z,100246.78
2022-09-25T21:59:08.361Z,100238.09
2022-09-25T22:01:38.697Z,100238.09
2022-09-25T22:04:07.725Z,100246.78
2022-09-25T22:06:41.921Z,100248.91
2022-09-25T22:09:15.266Z,100247.75
2022-09-25T22:11:43.454Z,100240.19
2022-09-25T22:14:15.826Z,100240.59
2022-09-25T22:16:46.387Z,100245.31
2022-09-25T22:19:29.214Z,100242.41
2022-09-25T22:21:59.247Z,100240.19
2022-09-25T22:24:27.556Z,100245.72
2022-09-25T22:26:55.860Z,100247.66
2022-09-25T22:29:23.682Z,100245.47
2022-09-25T22:31:50.650Z,100241.03
2022-09-25T22:34:29.142Z,100245.59
2022-09-25T22:36:59.957Z,100248.47
2022-09-25T22:39:28.395Z,100251.78
2022-09-25T22:41:56.471Z,100246.13
2022-09-25T22:44:23.707Z,100240.88
2022-09-25T22:46:51.138Z,100240.56
2022-09-25T22:49:18.196Z,100242.34
2022-09-25T22:51:45.367Z,100243.03
2022-09-25T22:54:14.483Z,100235.56
2022-09-25T22:56:41.823Z,100234.03
2022-09-25T22:59:14.511Z,100232.25
2022-09-25T23:01:49.901Z,100224.41
2022-09-25T23:04:20.971Z,100226.84
2022-09-25T23:06:48.466Z,100218.56
2022-09-25T23:09:19.830Z,100222.97
2022-09-25T23:11:47.264Z,100218.72
2022-09-25T23:14:19.761Z,100224.94
2022-09-25T23:16:48.651Z,100217.97
2022-09-25T23:19:16.405Z,100217.72
2022-09-25T23:21:43.763Z,100214.13
2022-09-25T23:24:16.763Z,100207.16
2022-09-25T23:26:45.583Z,100213.84
2022-09-25T23:29:16.576Z,100217.22
2022-09-25T23:31:44.715Z,100208.59
2022-09-25T23:34:11.724Z,100197.28
2022-09-25T23:36:39.192Z,100204.44
2022-09-25T23:39:08.650Z,100200.16
2022-09-25T23:41:38.714Z,100204.06
2022-09-25T23:44:08.692Z,100206.84
2022-09-25T23:46:39.773Z,100206.53
2022-09-25T23:49:07.077Z,100200.88
2022-09-25T23:51:34.141Z,100202.38
2022-09-25T23:54:01.993Z,100208.16
2022-09-25T23:56:32.749Z,100198.81
2022-09-25T23:59:01.534Z,100205.19
